Accueil
METAR-TAF:

METAR-TAF

Aéroports :

Prato Nevoso, Italie

Monte Malanotte

latitude: 44-15N, longitude: 007-48E, altitude: 1741 m

Observation

Le bulletin a été fait il y a 4 heures et 40 minutes, à 17:55 UTC
Vent 2 kt de est
Température 10°C
Humidité 87%
Pression 1004 hPa
Visibilité: 5000 m
Nuages épars à une hauteur de 2000 ft
brume

METAR: LIMY 271755Z 09002KT 5000 BR SCT020 10/08 Q1004 RMK BKN SCT070 VAL FOSCHIA VIS MIN 3000W

Heure: 00:35 (22:35 UTC)


TAF: absent

Observations et prévisions météorologiques de plus de 4000 aéroports (messages METAR et TAF).

Les stations disponibles sont représentées par des disques jaunes et rouges sur la carte.

Passer la souris dessus pour voir le nom de la station.

Cliquer dessus pour voir les observations et prévisions météorologiques.

Pour changer de carte: cliquez sur les boutons verts avec une croix noire pour zoomer, sur le bouton vert avec un tiret pour effectuer un zoom arrière, ou sur les flèches vertes pour les cartes adjacentes.


METAR-TAF: